Time;durP1;ratioP1;P1;durP2;ratioP2;P2;SDS_P1;SDS_P2;PMS_P1;PMS_P2;Temp;Humidity;BMP_temperature;BMP_pressure;BME280_temperature;BME280_humidity;BME280_pressure;Samples;Min_cycle;Max_cycle;Signal;HPM_P1;HPM_P2
2022/08/26 00:02:04;;;;;;;22.42;5.75;;;;;;;;;;5073604;28;20245;-44
2022/08/26 00:04:30;;;;;;;15.73;5.75;;;;;;;;;;5073236;28;20016;-45
2022/08/26 00:06:56;;;;;;;19.55;6.40;;;;;;;;;;5071492;28;20114;-46
2022/08/26 00:09:22;;;;;;;19.30;6.25;;;;;;;;;;5072168;28;20460;-44
2022/08/26 00:11:47;;;;;;;27.98;5.85;;;;;;;;;;5073560;28;20126;-43
2022/08/26 00:14:14;;;;;;;15.35;5.70;;;;;;;;;;5073250;28;20052;-45
2022/08/26 00:16:39;;;;;;;17.33;5.95;;;;;;;;;;5072966;28;20070;-43
2022/08/26 00:19:04;;;;;;;23.02;7.30;;;;;;;;;;5073197;28;20422;-44
2022/08/26 00:21:30;;;;;;;22.60;5.87;;;;;;;;;;5073543;28;20052;-45
2022/08/26 00:23:55;;;;;;;17.35;6.57;;;;;;;;;;5072985;28;20298;-44
2022/08/26 00:26:21;;;;;;;14.05;4.93;;;;;;;;;;5073438;28;20028;-46
2022/08/26 00:28:46;;;;;;;13.35;5.95;;;;;;;;;;5072781;28;20028;-44
2022/08/26 00:31:11;;;;;;;13.55;5.43;;;;;;;;;;5073056;28;20020;-43
2022/08/26 00:33:37;;;;;;;20.40;5.45;;;;;;;;;;5072764;28;20372;-45
2022/08/26 00:36:03;;;;;;;20.42;6.78;;;;;;;;;;5071316;28;20028;-44
2022/08/26 00:38:29;;;;;;;17.42;6.38;;;;;;;;;;5071409;28;20024;-43
2022/08/26 00:40:55;;;;;;;15.70;5.60;;;;;;;;;;5072982;28;20025;-43
2022/08/26 00:43:21;;;;;;;13.07;5.40;;;;;;;;;;5071400;28;20019;-46
2022/08/26 00:45:51;;;;;;;28.30;7.75;;;;;;;;;;5071871;28;20020;-46
2022/08/26 00:48:18;;;;;;;14.52;6.05;;;;;;;;;;5072610;28;20044;-44
2022/08/26 00:50:49;;;;;;;17.35;5.38;;;;;;;;;;5070777;28;20092;-45
2022/08/26 00:53:21;;;;;;;17.55;6.63;;;;;;;;;;5052677;28;20021;-43
2022/08/26 00:55:49;;;;;;;17.33;6.78;;;;;;;;;;5050449;28;20036;-44
2022/08/26 00:58:14;;;;;;;31.90;9.35;;;;;;;;;;5052467;28;20472;-45
2022/08/26 01:00:39;;;;;;;29.33;6.68;;;;;;;;;;5050680;28;20021;-44
2022/08/26 01:03:05;;;;;;;22.38;6.40;;;;;;;;;;5051152;28;20032;-43
2022/08/26 01:05:31;;;;;;;15.95;6.53;;;;;;;;;;5050822;28;20055;-45
2022/08/26 01:07:57;;;;;;;27.38;6.50;;;;;;;;;;5052184;28;20033;-43
2022/08/26 01:10:24;;;;;;;26.05;7.00;;;;;;;;;;5052480;28;20429;-45
2022/08/26 01:12:58;;;;;;;22.10;5.95;;;;;;;;;;5052375;28;20020;-44
2022/08/26 01:15:26;;;;;;;16.98;5.28;;;;;;;;;;5052290;28;20029;-43
2022/08/26 01:17:51;;;;;;;20.02;6.50;;;;;;;;;;5050422;28;20025;-46
2022/08/26 01:20:20;;;;;;;13.55;4.97;;;;;;;;;;5051745;28;20445;-44
2022/08/26 01:23:02;;;;;;;19.75;5.75;;;;;;;;;;5050499;28;20376;-43
2022/08/26 01:25:30;;;;;;;23.35;6.75;;;;;;;;;;5051455;28;20029;-45
2022/08/26 01:27:57;;;;;;;24.67;5.90;;;;;;;;;;5051407;28;20047;-44
2022/08/26 01:30:23;;;;;;;23.45;5.85;;;;;;;;;;5052121;28;20014;-44
2022/08/26 01:32:49;;;;;;;20.17;5.50;;;;;;;;;;5051636;28;20021;-43
2022/08/26 01:35:14;;;;;;;26.35;5.57;;;;;;;;;;5051739;28;20017;-43
2022/08/26 01:37:39;;;;;;;23.92;5.95;;;;;;;;;;5050630;28;20052;-43
2022/08/26 01:40:06;;;;;;;22.33;5.53;;;;;;;;;;5051845;28;20448;-44
2022/08/26 01:42:33;;;;;;;26.23;5.38;;;;;;;;;;5051366;28;20021;-45
2022/08/26 01:45:02;;;;;;;23.20;6.05;;;;;;;;;;5051643;28;20029;-43
2022/08/26 01:47:29;;;;;;;15.30;4.85;;;;;;;;;;5051784;28;20426;-44
2022/08/26 01:49:55;;;;;;;17.10;5.65;;;;;;;;;;5049794;28;20036;-43
2022/08/26 01:52:23;;;;;;;20.40;5.88;;;;;;;;;;5066799;28;20013;-45
2022/08/26 01:54:49;;;;;;;23.08;7.55;;;;;;;;;;5071424;28;20028;-44
2022/08/26 01:57:14;;;;;;;12.90;4.53;;;;;;;;;;5071543;28;20020;-43
2022/08/26 01:59:40;;;;;;;17.60;5.28;;;;;;;;;;5071748;28;20024;-46
2022/08/26 02:02:05;;;;;;;22.83;6.13;;;;;;;;;;5071471;28;20028;-44
2022/08/26 02:04:39;;;;;;;16.48;6.10;;;;;;;;;;5069975;28;20025;-45
2022/08/26 02:07:06;;;;;;;23.90;6.15;;;;;;;;;;5052437;28;20056;-43
2022/08/26 02:09:32;;;;;;;17.55;5.68;;;;;;;;;;5051109;28;20111;-47
2022/08/26 02:11:59;;;;;;;22.30;5.65;;;;;;;;;;5033464;28;20511;-44
2022/08/26 02:14:26;;;;;;;23.88;5.78;;;;;;;;;;5051126;28;20049;-44
2022/08/26 02:16:52;;;;;;;23.35;5.10;;;;;;;;;;5033303;28;20036;-43
2022/08/26 02:19:19;;;;;;;16.90;5.20;;;;;;;;;;5051203;28;20440;-43
2022/08/26 02:21:46;;;;;;;20.88;6.35;;;;;;;;;;5050580;28;20025;-43
2022/08/26 02:24:16;;;;;;;27.35;5.93;;;;;;;;;;5032983;28;20128;-43
2022/08/26 02:26:42;;;;;;;22.70;5.65;;;;;;;;;;5050693;28;20082;-44
2022/08/26 02:29:15;;;;;;;18.40;5.28;;;;;;;;;;5033337;28;20435;-44
2022/08/26 02:31:40;;;;;;;17.98;4.85;;;;;;;;;;5051043;28;20029;-47
2022/08/26 02:34:13;;;;;;;21.77;6.00;;;;;;;;;;5051032;28;20027;-44
2022/08/26 02:36:39;;;;;;;20.92;6.03;;;;;;;;;;5033074;28;20290;-43
2022/08/26 02:39:05;;;;;;;13.88;5.82;;;;;;;;;;5050882;28;20067;-43
2022/08/26 02:41:30;;;;;;;17.50;5.22;;;;;;;;;;5051094;28;20417;-45
2022/08/26 02:43:55;;;;;;;23.92;5.18;;;;;;;;;;5050902;28;20163;-43
2022/08/26 02:46:21;;;;;;;16.63;5.20;;;;;;;;;;5033138;28;20025;-44
2022/08/26 02:48:46;;;;;;;15.05;5.50;;;;;;;;;;5051133;28;20033;-45
2022/08/26 02:51:11;;;;;;;12.52;4.95;;;;;;;;;;5026954;28;20025;-45
2022/08/26 02:53:36;;;;;;;22.23;6.60;;;;;;;;;;5030785;28;20131;-43
2022/08/26 02:56:03;;;;;;;25.93;5.67;;;;;;;;;;5031296;28;20698;-43
2022/08/26 02:58:28;;;;;;;26.10;7.07;;;;;;;;;;5012523;28;20259;-44
2022/08/26 03:00:53;;;;;;;21.58;5.40;;;;;;;;;;5030566;28;20021;-45
2022/08/26 03:03:19;;;;;;;21.45;5.50;;;;;;;;;;5013016;28;20033;-43
2022/08/26 03:05:44;;;;;;;12.30;4.82;;;;;;;;;;5030966;28;20543;-44
2022/08/26 03:08:10;;;;;;;19.70;5.20;;;;;;;;;;5030768;28;20037;-44
2022/08/26 03:10:36;;;;;;;19.70;5.10;;;;;;;;;;5030194;28;20334;-43
2022/08/26 03:13:01;;;;;;;18.48;5.47;;;;;;;;;;5031039;28;20020;-43
2022/08/26 03:15:28;;;;;;;17.88;4.63;;;;;;;;;;5030661;28;20029;-44
2022/08/26 03:17:53;;;;;;;18.10;5.78;;;;;;;;;;5031578;28;20076;-43
2022/08/26 03:20:19;;;;;;;19.63;4.70;;;;;;;;;;5034008;28;20420;-43
2022/08/26 03:22:44;;;;;;;10.13;4.13;;;;;;;;;;5034206;28;20052;-43
2022/08/26 03:25:11;;;;;;;13.05;5.25;;;;;;;;;;5034297;28;20014;-45
2022/08/26 03:27:36;;;;;;;21.02;5.65;;;;;;;;;;5034125;28;20448;-45
2022/08/26 03:32:46;;;;;;;25.33;5.57;;;;;;;;;;5034167;28;20021;-44
2022/08/26 03:35:11;;;;;;;16.90;5.07;;;;;;;;;;5034098;28;20412;-44
2022/08/26 03:37:37;;;;;;;21.00;5.47;;;;;;;;;;5016090;28;20032;-45
2022/08/26 03:40:03;;;;;;;15.63;5.10;;;;;;;;;;5034348;28;20037;-44
2022/08/26 03:42:28;;;;;;;17.35;5.53;;;;;;;;;;5016302;28;20370;-43
2022/08/26 03:44:54;;;;;;;15.77;4.88;;;;;;;;;;5015764;28;20119;-43
2022/08/26 03:47:19;;;;;;;22.30;5.23;;;;;;;;;;5033913;28;20018;-43
2022/08/26 03:49:44;;;;;;;16.90;5.13;;;;;;;;;;5015580;28;20282;-44
2022/08/26 03:52:10;;;;;;;17.75;4.82;;;;;;;;;;5029182;28;20017;-43
2022/08/26 03:54:35;;;;;;;19.83;6.45;;;;;;;;;;5053471;28;20057;-44
2022/08/26 03:57:00;;;;;;;12.65;4.82;;;;;;;;;;5035281;28;20070;-46
2022/08/26 03:59:26;;;;;;;16.55;4.88;;;;;;;;;;5053508;28;20013;-44
2022/08/26 04:01:51;;;;;;;18.58;5.70;;;;;;;;;;5053654;28;20108;-43
2022/08/26 04:04:17;;;;;;;16.08;5.28;;;;;;;;;;5035423;28;20071;-43
2022/08/26 04:06:42;;;;;;;15.88;5.60;;;;;;;;;;5053406;28;20057;-44
2022/08/26 04:09:12;;;;;;;21.08;5.30;;;;;;;;;;5035248;28;20396;-44
2022/08/26 04:11:38;;;;;;;15.60;5.10;;;;;;;;;;5035926;28;20027;-43
2022/08/26 04:14:05;;;;;;;12.30;4.70;;;;;;;;;;5053289;28;20020;-46
2022/08/26 04:16:31;;;;;;;16.02;5.32;;;;;;;;;;5035267;28;20021;-45
2022/08/26 04:18:57;;;;;;;23.70;6.30;;;;;;;;;;5053223;28;20076;-43
2022/08/26 04:21:23;;;;;;;13.50;5.18;;;;;;;;;;5052990;28;20445;-45
2022/08/26 04:23:49;;;;;;;15.05;4.85;;;;;;;;;;5053169;28;20025;-43
2022/08/26 04:26:15;;;;;;;19.92;5.00;;;;;;;;;;5035111;28;20057;-43
2022/08/26 04:28:40;;;;;;;20.23;5.20;;;;;;;;;;5052158;28;20051;-46
2022/08/26 04:31:09;;;;;;;16.70;5.38;;;;;;;;;;5034677;28;20025;-44
2022/08/26 04:33:34;;;;;;;17.70;4.63;;;;;;;;;;5053180;28;20016;-46
2022/08/26 04:36:01;;;;;;;11.65;4.63;;;;;;;;;;5034699;28;20480;-44
2022/08/26 04:38:26;;;;;;;14.98;4.72;;;;;;;;;;5035236;28;20053;-44
2022/08/26 04:40:51;;;;;;;14.23;4.63;;;;;;;;;;5035294;28;20621;-43
2022/08/26 04:43:17;;;;;;;15.57;5.00;;;;;;;;;;5052934;28;20017;-44
2022/08/26 04:45:42;;;;;;;17.02;5.43;;;;;;;;;;5034571;28;20021;-44
2022/08/26 04:48:08;;;;;;;12.88;4.57;;;;;;;;;;5034758;28;20068;-45
2022/08/26 04:50:33;;;;;;;18.30;4.88;;;;;;;;;;5033639;28;20056;-43
2022/08/26 04:52:58;;;;;;;16.98;4.30;;;;;;;;;;5032772;28;20184;-44
2022/08/26 04:55:24;;;;;;;16.63;4.32;;;;;;;;;;5032730;28;20029;-44
2022/08/26 04:57:50;;;;;;;12.55;4.50;;;;;;;;;;5014603;28;20048;-44
2022/08/26 05:00:16;;;;;;;10.23;4.38;;;;;;;;;;5032580;28;20053;-43
2022/08/26 05:02:41;;;;;;;17.23;4.95;;;;;;;;;;5032273;28;20017;-44
2022/08/26 05:05:07;;;;;;;11.82;5.18;;;;;;;;;;5013990;28;20362;-43
2022/08/26 05:07:33;;;;;;;17.65;4.20;;;;;;;;;;5032196;28;20079;-43
2022/08/26 05:09:59;;;;;;;15.63;4.95;;;;;;;;;;5032384;28;20029;-45
2022/08/26 05:12:24;;;;;;;20.17;4.53;;;;;;;;;;5032638;28;20028;-41
2022/08/26 05:14:49;;;;;;;15.33;4.37;;;;;;;;;;5032000;28;20115;-44
2022/08/26 05:17:15;;;;;;;15.60;4.77;;;;;;;;;;5032504;28;20775;-43
2022/08/26 05:19:40;;;;;;;15.85;5.05;;;;;;;;;;5014387;28;20329;-47
2022/08/26 05:22:06;;;;;;;13.68;4.35;;;;;;;;;;5031557;28;20061;-43
2022/08/26 05:24:31;;;;;;;16.92;4.53;;;;;;;;;;5031718;28;20021;-44
2022/08/26 05:26:56;;;;;;;15.52;4.68;;;;;;;;;;5014309;28;20018;-44
2022/08/26 05:29:22;;;;;;;17.85;3.65;;;;;;;;;;5031930;28;20052;-43
2022/08/26 05:31:49;;;;;;;17.42;4.55;;;;;;;;;;5032097;28;20067;-44
2022/08/26 05:34:14;;;;;;;16.60;4.60;;;;;;;;;;5032073;28;20453;-46
2022/08/26 05:36:40;;;;;;;13.63;4.55;;;;;;;;;;5013873;28;20025;-42
2022/08/26 05:39:05;;;;;;;17.00;4.95;;;;;;;;;;5013792;28;20029;-43
2022/08/26 05:41:33;;;;;;;15.45;4.72;;;;;;;;;;5030757;28;20553;-44
2022/08/26 05:43:59;;;;;;;12.65;4.93;;;;;;;;;;5038643;28;20057;-43
2022/08/26 05:46:25;;;;;;;13.55;4.32;;;;;;;;;;5040322;28;20103;-43
2022/08/26 05:48:51;;;;;;;15.90;3.88;;;;;;;;;;5047154;28;20033;-43
2022/08/26 05:51:16;;;;;;;11.60;4.00;;;;;;;;;;5029010;28;20013;-44
2022/08/26 05:53:42;;;;;;;20.63;4.27;;;;;;;;;;5043043;28;20067;-43
2022/08/26 05:56:08;;;;;;;21.63;5.10;;;;;;;;;;5038096;28;20029;-43
2022/08/26 05:58:34;;;;;;;14.68;4.10;;;;;;;;;;5043683;28;20118;-44
2022/08/26 06:01:02;;;;;;;15.57;4.78;;;;;;;;;;5020600;28;20017;-45
2022/08/26 06:03:27;;;;;;;16.88;4.40;;;;;;;;;;5051066;28;20376;-43
2022/08/26 06:05:53;;;;;;;13.77;5.18;;;;;;;;;;5045194;28;20049;-41
2022/08/26 06:08:19;;;;;;;17.92;5.13;;;;;;;;;;5021636;28;20038;-43
2022/08/26 06:10:50;;;;;;;17.55;4.75;;;;;;;;;;5031088;28;20453;-45
2022/08/26 06:13:17;;;;;;;16.77;5.55;;;;;;;;;;5013372;28;20076;-42
2022/08/26 06:15:46;;;;;;;9.43;4.10;;;;;;;;;;5033701;28;20035;-44
2022/08/26 06:18:13;;;;;;;18.73;4.25;;;;;;;;;;5039142;28;20087;-44
2022/08/26 06:20:42;;;;;;;19.80;4.07;;;;;;;;;;5030868;28;20033;-44
2022/08/26 06:25:54;;;;;;;15.10;4.18;;;;;;;;;;5030718;28;20023;-46
2022/08/26 06:28:24;;;;;;;11.95;4.05;;;;;;;;;;5018548;28;20049;-43
2022/08/26 06:30:50;;;;;;;15.38;4.28;;;;;;;;;;5047684;28;20028;-42
2022/08/26 06:33:15;;;;;;;12.35;4.90;;;;;;;;;;5050523;28;20469;-43
2022/08/26 06:35:41;;;;;;;17.73;5.72;;;;;;;;;;5032387;28;20438;-45
2022/08/26 06:38:07;;;;;;;20.50;5.13;;;;;;;;;;5050431;28;20111;-44
2022/08/26 06:40:33;;;;;;;14.35;4.57;;;;;;;;;;5032505;28;20021;-45
2022/08/26 06:42:58;;;;;;;19.77;4.47;;;;;;;;;;5050254;28;20052;-45
2022/08/26 06:45:23;;;;;;;15.13;4.43;;;;;;;;;;5017225;28;20033;-43
2022/08/26 06:47:48;;;;;;;14.27;4.07;;;;;;;;;;5029584;28;20333;-45
2022/08/26 06:50:14;;;;;;;12.40;4.77;;;;;;;;;;5031462;28;20037;-41
2022/08/26 06:52:42;;;;;;;23.93;4.60;;;;;;;;;;5037421;28;20709;-48
2022/08/26 06:55:07;;;;;;;14.40;3.85;;;;;;;;;;5054170;28;20376;-44
2022/08/26 06:57:35;;;;;;;24.08;4.13;;;;;;;;;;5035563;28;20120;-42
2022/08/26 07:00:03;;;;;;;12.90;4.00;;;;;;;;;;5053295;28;20020;-42
2022/08/26 07:02:28;;;;;;;13.10;3.72;;;;;;;;;;5035357;28;20349;-46
2022/08/26 07:04:53;;;;;;;18.50;4.37;;;;;;;;;;5053678;28;20160;-42
2022/08/26 07:07:19;;;;;;;12.03;3.73;;;;;;;;;;5053735;28;20020;-45
2022/08/26 07:09:45;;;;;;;9.27;4.00;;;;;;;;;;5053328;28;20344;-45
2022/08/26 07:12:10;;;;;;;12.68;3.90;;;;;;;;;;5035793;28;20258;-44
2022/08/26 07:14:36;;;;;;;12.10;4.27;;;;;;;;;;5053581;28;20036;-43
2022/08/26 07:17:01;;;;;;;19.83;4.47;;;;;;;;;;5053090;28;20257;-43
2022/08/26 07:19:27;;;;;;;15.77;3.97;;;;;;;;;;5035599;28;20112;-44
2022/08/26 07:21:52;;;;;;;22.43;3.63;;;;;;;;;;5035557;28;20021;-43
2022/08/26 07:24:17;;;;;;;15.77;4.40;;;;;;;;;;5053251;28;20231;-42
2022/08/26 07:26:42;;;;;;;15.37;3.97;;;;;;;;;;5052836;28;20028;-44
2022/08/26 07:29:10;;;;;;;15.57;4.03;;;;;;;;;;5053154;28;20286;-44
2022/08/26 07:31:36;;;;;;;14.10;4.07;;;;;;;;;;5052735;28;20242;-43
2022/08/26 07:34:01;;;;;;;12.77;4.15;;;;;;;;;;5053205;28;20482;-43
2022/08/26 07:36:29;;;;;;;11.93;4.05;;;;;;;;;;5052506;28;20425;-46
2022/08/26 07:38:55;;;;;;;20.70;4.10;;;;;;;;;;5051946;28;20013;-43
2022/08/26 07:41:22;;;;;;;12.88;3.60;;;;;;;;;;5051832;28;20392;-45
2022/08/26 07:43:48;;;;;;;12.48;3.13;;;;;;;;;;5052431;28;20013;-43
2022/08/26 07:46:18;;;;;;;14.48;3.78;;;;;;;;;;5034708;28;20119;-45
2022/08/26 07:48:45;;;;;;;17.40;3.92;;;;;;;;;;5033523;28;20207;-44
2022/08/26 07:51:10;;;;;;;27.88;4.53;;;;;;;;;;5045955;28;20075;-46
2022/08/26 07:53:35;;;;;;;14.10;3.70;;;;;;;;;;5026494;28;20021;-42
2022/08/26 07:56:01;;;;;;;11.88;3.78;;;;;;;;;;5042299;28;20239;-41
2022/08/26 07:58:27;;;;;;;17.55;3.83;;;;;;;;;;5012793;28;20658;-45
2022/08/26 08:00:53;;;;;;;21.45;4.00;;;;;;;;;;5014481;28;20032;-43
2022/08/26 08:03:19;;;;;;;16.92;3.70;;;;;;;;;;5029981;28;20029;-43
2022/08/26 08:05:44;;;;;;;10.63;3.40;;;;;;;;;;5043124;28;20052;-44
2022/08/26 08:08:09;;;;;;;13.97;3.57;;;;;;;;;;5032497;28;20389;-46
2022/08/26 08:10:35;;;;;;;23.47;4.00;;;;;;;;;;5052594;28;20071;-42
2022/08/26 08:13:01;;;;;;;18.55;3.70;;;;;;;;;;5052470;28;20384;-44
2022/08/26 08:15:27;;;;;;;9.07;2.97;;;;;;;;;;5051876;28;20021;-41
2022/08/26 08:17:53;;;;;;;16.15;4.40;;;;;;;;;;5051325;28;20055;-44
2022/08/26 08:20:19;;;;;;;19.83;4.13;;;;;;;;;;5032674;28;20567;-44
2022/08/26 08:22:44;;;;;;;13.20;3.63;;;;;;;;;;5032435;28;20454;-43
2022/08/26 08:25:10;;;;;;;10.52;3.53;;;;;;;;;;5032650;28;20017;-44
2022/08/26 08:27:36;;;;;;;17.48;3.70;;;;;;;;;;5031257;28;20018;-42
2022/08/26 08:30:02;;;;;;;12.80;3.83;;;;;;;;;;5031313;28;20454;-43
2022/08/26 08:32:28;;;;;;;14.77;3.55;;;;;;;;;;5032201;28;20116;-41
2022/08/26 08:34:53;;;;;;;15.77;4.40;;;;;;;;;;5032125;28;20148;-42
2022/08/26 08:37:19;;;;;;;18.17;4.13;;;;;;;;;;5031508;28;20013;-43
2022/08/26 08:39:44;;;;;;;21.27;4.00;;;;;;;;;;5013739;28;20482;-44
2022/08/26 08:42:09;;;;;;;28.73;4.23;;;;;;;;;;5031589;28;20024;-43
2022/08/26 08:44:36;;;;;;;12.93;3.77;;;;;;;;;;5020142;28;20013;-43
2022/08/26 08:47:04;;;;;;;14.88;3.83;;;;;;;;;;5051266;28;20021;-44
2022/08/26 08:49:30;;;;;;;;;;;;;;;;;;5034465;28;20039;-42
2022/08/26 08:51:59;;;;;;;12.20;3.42;;;;;;;;;;5051824;28;19991;-42
2022/08/26 08:54:28;;;;;;;18.58;3.63;;;;;;;;;;5033579;28;20021;-42
2022/08/26 08:57:01;;;;;;;15.52;3.55;;;;;;;;;;5033146;28;20027;-41
2022/08/26 08:59:30;;;;;;;18.92;4.05;;;;;;;;;;5033475;28;20175;-41
2022/08/26 09:01:55;;;;;;;23.52;4.80;;;;;;;;;;5030104;28;20388;-41
2022/08/26 09:04:39;;;;;;;18.73;4.27;;;;;;;;;;5045563;28;20040;-44
2022/08/26 09:07:07;;;;;;;29.83;4.30;;;;;;;;;;5042631;28;20298;-43
2022/08/26 09:09:40;;;;;;;26.98;4.20;;;;;;;;;;5049936;28;20405;-44
2022/08/26 09:12:08;;;;;;;14.82;3.90;;;;;;;;;;5029705;28;20025;-44
2022/08/26 09:14:34;;;;;;;17.95;3.47;;;;;;;;;;5028506;28;20056;-43
2022/08/26 09:17:15;;;;;;;17.20;3.75;;;;;;;;;;5047466;28;20534;-42
2022/08/26 09:19:44;;;;;;;14.57;4.40;;;;;;;;;;5045168;28;20065;-46
2022/08/26 09:22:11;;;;;;;11.52;3.47;;;;;;;;;;5038286;28;20099;-45
2022/08/26 09:24:38;;;;;;;15.27;3.97;;;;;;;;;;5046695;28;20032;-42
2022/08/26 09:27:03;;;;;;;18.42;4.15;;;;;;;;;;5030775;28;20024;-42
2022/08/26 09:29:30;;;;;;;14.68;3.67;;;;;;;;;;5030611;28;20051;-44
2022/08/26 09:32:15;;;;;;;14.27;3.75;;;;;;;;;;5050443;28;20029;-43
2022/08/26 09:35:00;;;;;;;12.75;3.63;;;;;;;;;;5042804;28;20029;-45
2022/08/26 09:37:31;;;;;;;20.20;3.75;;;;;;;;;;5011986;28;20037;-43
2022/08/26 09:40:10;;;;;;;16.10;3.95;;;;;;;;;;5035163;28;20025;-44
2022/08/26 09:42:35;;;;;;;12.98;3.28;;;;;;;;;;5046078;28;20021;-46
2022/08/26 09:45:04;;;;;;;15.80;3.93;;;;;;;;;;5040685;28;20399;-44
2022/08/26 09:47:36;;;;;;;16.60;3.88;;;;;;;;;;5028112;28;20029;-45
2022/08/26 09:50:17;;;;;;;18.80;3.47;;;;;;;;;;5029265;28;20026;-44
2022/08/26 09:52:43;;;;;;;15.32;2.97;;;;;;;;;;5029593;28;20009;-43
2022/08/26 09:55:08;;;;;;;17.63;3.58;;;;;;;;;;5043007;28;20032;-43
2022/08/26 09:57:35;;;;;;;17.30;3.93;;;;;;;;;;5014165;28;20183;-43
2022/08/26 10:00:01;;;;;;;17.35;3.53;;;;;;;;;;5030169;28;20016;-43
2022/08/26 10:02:32;;;;;;;21.48;3.40;;;;;;;;;;5050631;28;20461;-43
2022/08/26 10:04:59;;;;;;;18.33;3.35;;;;;;;;;;5050702;28;20068;-44
2022/08/26 10:07:42;;;;;;;14.77;4.32;;;;;;;;;;5049737;28;20499;-41
2022/08/26 10:10:13;;;;;;;15.82;3.22;;;;;;;;;;5049527;28;20453;-42
2022/08/26 10:12:45;;;;;;;18.83;3.40;;;;;;;;;;5033090;28;20021;-44
2022/08/26 10:15:11;;;;;;;18.98;3.63;;;;;;;;;;5050831;28;20013;-40
2022/08/26 10:17:39;;;;;;;14.10;3.50;;;;;;;;;;5032012;28;20021;-41
2022/08/26 10:20:09;;;;;;;12.77;3.78;;;;;;;;;;5049817;28;20017;-40
2022/08/26 10:22:51;;;;;;;13.90;3.30;;;;;;;;;;5029584;28;20109;-41
2022/08/26 10:25:20;;;;;;;11.35;2.85;;;;;;;;;;5012823;28;20496;-43
2022/08/26 10:27:51;;;;;;;17.65;3.03;;;;;;;;;;5032843;28;20104;-39
2022/08/26 10:30:19;;;;;;;24.00;4.57;;;;;;;;;;5052711;28;20128;-41
2022/08/26 10:32:47;;;;;;;18.48;3.83;;;;;;;;;;5055190;28;20136;-43
2022/08/26 10:35:13;;;;;;;21.02;3.95;;;;;;;;;;5054715;28;20033;-44
2022/08/26 10:37:47;;;;;;;12.52;3.30;;;;;;;;;;5053223;28;20028;-42
2022/08/26 10:40:26;;;;;;;21.40;3.88;;;;;;;;;;5052405;28;20012;-47
2022/08/26 10:43:17;;;;;;;16.23;3.80;;;;;;;;;;5042167;28;20025;-40
2022/08/26 10:45:57;;;;;;;20.65;3.63;;;;;;;;;;5046604;28;20051;-44
2022/08/26 10:48:28;;;;;;;23.42;4.10;;;;;;;;;;5025268;28;20374;-44
2022/08/26 10:50:55;;;;;;;19.52;3.20;;;;;;;;;;5029008;28;20026;-42
2022/08/26 10:53:35;;;;;;;23.63;4.20;;;;;;;;;;5025221;28;20465;-42
2022/08/26 10:56:04;;;;;;;16.23;3.65;;;;;;;;;;5046812;28;20083;-42
2022/08/26 10:58:39;;;;;;;26.25;4.03;;;;;;;;;;5030195;28;20067;-44
2022/08/26 11:03:56;;;;;;;19.13;3.85;;;;;;;;;;5051302;28;20037;-43
2022/08/26 11:06:23;;;;;;;64.35;6.47;;;;;;;;;;5051602;28;20048;-41
2022/08/26 11:08:50;;;;;;;16.00;3.35;;;;;;;;;;5073214;28;20523;-44
2022/08/26 11:11:34;;;;;;;14.35;3.78;;;;;;;;;;5067711;28;20081;-40
2022/08/26 11:14:01;;;;;;;23.95;4.10;;;;;;;;;;5070849;28;20031;-39
2022/08/26 11:16:34;;;;;;;21.02;3.92;;;;;;;;;;5062226;28;20376;-43
2022/08/26 11:18:59;;;;;;;16.35;3.15;;;;;;;;;;5069167;28;20039;-41
2022/08/26 11:21:40;;;;;;;9.52;3.05;;;;;;;;;;5066033;28;20050;-47
2022/08/26 11:24:06;;;;;;;17.67;3.00;;;;;;;;;;5067144;28;20024;-40
2022/08/26 11:26:34;;;;;;;20.13;3.47;;;;;;;;;;5066266;28;20667;-43
2022/08/26 11:29:00;;;;;;;18.02;3.58;;;;;;;;;;5071418;28;20040;-41
2022/08/26 11:31:25;;;;;;;12.95;3.00;;;;;;;;;;5057278;28;20027;-43
2022/08/26 11:33:57;;;;;;;12.67;3.30;;;;;;;;;;5052196;28;20063;-44
2022/08/26 11:36:28;;;;;;;14.02;3.08;;;;;;;;;;5049365;28;20032;-47
2022/08/26 11:38:53;;;;;;;13.13;2.83;;;;;;;;;;5049806;28;20028;-42
2022/08/26 11:41:20;;;;;;;11.68;2.40;;;;;;;;;;5052505;28;20021;-42
2022/08/26 11:43:49;;;;;;;17.33;3.30;;;;;;;;;;5051721;28;20048;-45
2022/08/26 11:46:22;;;;;;;11.07;3.25;;;;;;;;;;5056460;28;20601;-44
2022/08/26 11:48:47;;;;;;;11.07;2.97;;;;;;;;;;5056667;28;20032;-43
2022/08/26 11:51:19;;;;;;;16.03;3.27;;;;;;;;;;5065961;28;20024;-44
2022/08/26 11:53:44;;;;;;;23.75;3.63;;;;;;;;;;5060125;28;20025;-43
2022/08/26 11:56:11;;;;;;;15.63;3.13;;;;;;;;;;5063878;28;20504;-44
2022/08/26 11:58:44;;;;;;;14.63;3.97;;;;;;;;;;5072134;28;20791;-42
2022/08/26 12:01:12;;;;;;;13.57;3.00;;;;;;;;;;5066007;28;20429;-45
2022/08/26 12:03:43;;;;;;;11.60;2.83;;;;;;;;;;5064923;28;20455;-41
2022/08/26 12:06:11;;;;;;;10.35;3.30;;;;;;;;;;5051916;28;20761;-43
2022/08/26 12:08:41;;;;;;;15.60;3.45;;;;;;;;;;5042722;28;20076;-43
2022/08/26 12:11:08;;;;;;;16.98;3.67;;;;;;;;;;5024922;28;20033;-44
2022/08/26 12:13:34;;;;;;;17.52;2.70;;;;;;;;;;5043211;28;20484;-43
2022/08/26 12:16:00;;;;;;;15.93;3.03;;;;;;;;;;5042594;28;20021;-42
2022/08/26 12:18:32;;;;;;;13.02;3.47;;;;;;;;;;5040658;28;20029;-42
2022/08/26 12:20:59;;;;;;;17.77;3.15;;;;;;;;;;5037403;28;20100;-42
2022/08/26 12:23:24;;;;;;;8.57;2.97;;;;;;;;;;5043362;28;20027;-43
2022/08/26 12:25:51;;;;;;;13.60;3.10;;;;;;;;;;5045689;28;20025;-41
2022/08/26 12:28:17;;;;;;;16.67;3.25;;;;;;;;;;5032195;28;20025;-44
2022/08/26 12:30:57;;;;;;;14.07;3.13;;;;;;;;;;5047944;28;20032;-43
2022/08/26 12:33:22;;;;;;;20.10;3.33;;;;;;;;;;5033900;28;20024;-41
2022/08/26 12:35:48;;;;;;;21.08;3.72;;;;;;;;;;5051149;28;20017;-43
2022/08/26 12:38:13;;;;;;;13.40;3.22;;;;;;;;;;5038701;28;20052;-46
2022/08/26 12:40:42;;;;;;;14.55;3.67;;;;;;;;;;5031490;28;20048;-43
2022/08/26 12:43:07;;;;;;;13.10;3.05;;;;;;;;;;5014126;28;20091;-42
2022/08/26 12:45:34;;;;;;;16.77;3.22;;;;;;;;;;5031746;28;20457;-44
2022/08/26 12:48:10;;;;;;;13.25;3.05;;;;;;;;;;5031441;28;20022;-43
2022/08/26 12:50:37;;;;;;;13.40;3.85;;;;;;;;;;5047316;28;20436;-42
2022/08/26 12:53:03;;;;;;;18.15;3.10;;;;;;;;;;5039210;28;20331;-44
2022/08/26 12:55:34;;;;;;;14.60;3.47;;;;;;;;;;5034388;28;20032;-46
2022/08/26 12:58:10;;;;;;;11.63;2.80;;;;;;;;;;5046798;28;20078;-46
2022/08/26 13:00:36;;;;;;;9.95;2.40;;;;;;;;;;5030462;28;20362;-44
2022/08/26 13:03:02;;;;;;;10.65;3.08;;;;;;;;;;5048941;28;20480;-43
2022/08/26 13:05:32;;;;;;;9.20;3.22;;;;;;;;;;5038811;28;20044;-45
2022/08/26 13:08:14;;;;;;;17.42;3.13;;;;;;;;;;5066032;28;20024;-45
2022/08/26 13:10:41;;;;;;;15.50;3.42;;;;;;;;;;5053205;28;20052;-47
2022/08/26 13:13:06;;;;;;;15.55;3.05;;;;;;;;;;5063453;28;20017;-45
2022/08/26 13:15:32;;;;;;;12.03;2.67;;;;;;;;;;5064213;28;20512;-43
2022/08/26 13:17:57;;;;;;;6.95;3.20;;;;;;;;;;5065196;28;20112;-44
2022/08/26 13:20:22;;;;;;;12.87;3.30;;;;;;;;;;5064214;28;20029;-43
2022/08/26 13:22:48;;;;;;;13.10;2.60;;;;;;;;;;5067871;28;20035;-46
2022/08/26 13:25:14;;;;;;;7.75;2.95;;;;;;;;;;5067625;28;20253;-45
2022/08/26 13:27:41;;;;;;;10.60;3.17;;;;;;;;;;5062212;28;20025;-44
2022/08/26 13:30:07;;;;;;;14.60;3.13;;;;;;;;;;5063994;28;20039;-44
2022/08/26 13:32:32;;;;;;;10.95;3.05;;;;;;;;;;5056505;28;20033;-46
2022/08/26 13:34:58;;;;;;;15.23;2.72;;;;;;;;;;5050309;28;20076;-42
2022/08/26 13:37:25;;;;;;;12.75;3.45;;;;;;;;;;5050502;28;20021;-44
2022/08/26 13:39:52;;;;;;;9.80;2.78;;;;;;;;;;5050527;28;20115;-44
2022/08/26 13:42:17;;;;;;;12.27;3.33;;;;;;;;;;5050540;28;20033;-45
2022/08/26 13:44:43;;;;;;;10.00;3.42;;;;;;;;;;5050033;28;20024;-43
2022/08/26 13:47:09;;;;;;;21.80;3.10;;;;;;;;;;5050902;28;20009;-43
2022/08/26 13:49:34;;;;;;;11.07;2.87;;;;;;;;;;5051597;28;20029;-44
2022/08/26 13:52:00;;;;;;;12.90;3.20;;;;;;;;;;5063340;28;20515;-43
2022/08/26 13:54:25;;;;;;;13.55;3.72;;;;;;;;;;5071182;28;20044;-44
2022/08/26 13:56:50;;;;;;;14.30;3.10;;;;;;;;;;5069970;28;20024;-43
2022/08/26 13:59:16;;;;;;;13.33;2.90;;;;;;;;;;5071162;28;20426;-44
2022/08/26 14:01:41;;;;;;;14.88;3.20;;;;;;;;;;5070908;28;20382;-45
2022/08/26 14:04:07;;;;;;;15.40;3.57;;;;;;;;;;5070092;28;20025;-44
2022/08/26 14:06:32;;;;;;;11.00;2.83;;;;;;;;;;5059127;28;20282;-45
2022/08/26 14:08:57;;;;;;;14.20;3.37;;;;;;;;;;5050823;28;20476;-45
2022/08/26 14:11:23;;;;;;;11.33;3.60;;;;;;;;;;5051074;28;20589;-45
2022/08/26 14:13:49;;;;;;;12.30;3.08;;;;;;;;;;5051080;28;20788;-44
2022/08/26 14:16:18;;;;;;;11.02;3.15;;;;;;;;;;5051167;28;20032;-44
2022/08/26 14:18:44;;;;;;;9.02;2.65;;;;;;;;;;5033046;28;20024;-43
2022/08/26 14:21:11;;;;;;;10.82;2.90;;;;;;;;;;5032748;28;20404;-43
2022/08/26 14:23:36;;;;;;;15.85;3.15;;;;;;;;;;5050605;28;20108;-45
2022/08/26 14:26:06;;;;;;;15.33;3.43;;;;;;;;;;5051416;28;20096;-45
2022/08/26 14:28:32;;;;;;;20.30;3.40;;;;;;;;;;5032788;28;20033;-45
2022/08/26 14:30:57;;;;;;;14.63;3.27;;;;;;;;;;5033371;28;20448;-44
2022/08/26 14:33:24;;;;;;;8.70;3.03;;;;;;;;;;5032934;28;20757;-45
2022/08/26 14:35:49;;;;;;;13.45;3.15;;;;;;;;;;5050993;28;20017;-44
2022/08/26 14:38:15;;;;;;;10.60;3.67;;;;;;;;;;5051054;28;20032;-44
2022/08/26 14:40:43;;;;;;;14.82;3.20;;;;;;;;;;5050889;28;20253;-48